createdAt,value
2023-05-23T00:00:33.712Z,19.30
2023-05-23T00:03:04.896Z,19.31
2023-05-23T00:05:35.495Z,19.34
2023-05-23T00:08:06.074Z,19.28
2023-05-23T00:10:39.049Z,19.25
2023-05-23T00:13:09.773Z,19.36
2023-05-23T00:15:42.008Z,19.27
2023-05-23T00:18:14.080Z,19.18
2023-05-23T00:20:45.788Z,19.26
2023-05-23T00:23:19.618Z,19.27
2023-05-23T00:25:53.577Z,19.23
2023-05-23T00:28:24.440Z,19.20
2023-05-23T00:30:54.685Z,19.00
2023-05-23T00:33:25.118Z,19.02
2023-05-23T00:35:55.619Z,19.09
2023-05-23T00:38:27.013Z,19.23
2023-05-23T00:41:00.733Z,19.27
2023-05-23T00:43:31.792Z,19.32
2023-05-23T00:46:02.831Z,19.25
2023-05-23T00:48:33.896Z,19.26
2023-05-23T00:51:04.497Z,19.38
2023-05-23T00:53:34.938Z,19.31
2023-05-23T00:56:09.329Z,19.04
2023-05-23T00:58:39.865Z,19.01
2023-05-23T01:01:10.940Z,19.10
2023-05-23T01:03:41.499Z,19.25
2023-05-23T01:06:12.566Z,19.31
2023-05-23T01:08:43.382Z,19.36
2023-05-23T01:11:23.091Z,19.39
2023-05-23T01:14:03.020Z,19.31
2023-05-23T01:16:48.976Z,19.26
2023-05-23T01:19:52.442Z,19.35
2023-05-23T01:22:39.711Z,19.56
2023-05-23T01:25:17.432Z,19.63
2023-05-23T01:27:55.135Z,19.70
2023-05-23T01:30:28.111Z,19.78
2023-05-23T01:33:01.849Z,19.86
2023-05-23T01:35:33.196Z,19.94
2023-05-23T01:38:03.776Z,19.94
2023-05-23T01:40:34.182Z,19.90
2023-05-23T01:43:07.916Z,19.90
2023-05-23T01:45:39.143Z,19.79
2023-05-23T01:48:10.734Z,19.71
2023-05-23T01:50:42.213Z,19.63
2023-05-23T01:53:13.888Z,19.54
2023-05-23T01:55:45.754Z,19.50
2023-05-23T01:58:18.851Z,19.48
2023-05-23T02:00:50.034Z,19.39
2023-05-23T02:03:20.772Z,19.33
2023-05-23T02:05:52.561Z,19.39
2023-05-23T02:08:23.016Z,19.42
2023-05-23T02:10:53.959Z,19.46
2023-05-23T02:13:26.976Z,19.45
2023-05-23T02:15:57.687Z,19.50
2023-05-23T02:18:29.602Z,19.43
2023-05-23T02:21:00.083Z,19.38
2023-05-23T02:23:30.569Z,19.29
2023-05-23T02:26:01.112Z,19.20
2023-05-23T02:28:34.139Z,19.39
2023-05-23T02:31:04.982Z,19.50
2023-05-23T02:33:35.814Z,19.56
2023-05-23T02:36:07.126Z,19.59
2023-05-23T02:38:37.847Z,19.64
2023-05-23T02:41:08.644Z,19.67
2023-05-23T02:43:41.542Z,19.58
2023-05-23T02:46:13.872Z,19.58
2023-05-23T02:48:45.643Z,19.61
2023-05-23T02:51:16.654Z,19.47
2023-05-23T02:53:47.255Z,19.38
2023-05-23T02:56:17.623Z,19.25
2023-05-23T02:58:50.736Z,19.20
2023-05-23T03:01:21.228Z,19.26
2023-05-23T03:03:51.800Z,19.33
2023-05-23T03:06:23.030Z,19.32
2023-05-23T03:08:53.657Z,19.31
2023-05-23T03:11:25.036Z,19.30
2023-05-23T03:13:58.136Z,19.27
2023-05-23T03:16:28.735Z,19.32
2023-05-23T03:18:59.330Z,19.30
2023-05-23T03:21:29.943Z,19.17
2023-05-23T03:24:00.564Z,19.16
2023-05-23T03:26:31.065Z,19.23
2023-05-23T03:29:04.200Z,19.27
2023-05-23T03:31:34.738Z,19.26
2023-05-23T03:34:06.020Z,19.28
2023-05-23T03:36:39.505Z,19.27
2023-05-23T03:39:10.016Z,19.30
2023-05-23T03:41:40.534Z,19.35
2023-05-23T03:44:14.947Z,19.44
2023-05-23T03:46:46.063Z,19.47
2023-05-23T03:49:16.724Z,19.47
2023-05-23T03:51:47.258Z,19.41
2023-05-23T03:54:20.576Z,19.32
2023-05-23T03:56:51.223Z,19.15
2023-05-23T03:59:24.553Z,19.08
2023-05-23T04:01:55.396Z,19.14
2023-05-23T04:04:26.548Z,19.02
2023-05-23T04:06:58.322Z,18.98
2023-05-23T04:09:28.926Z,18.87
2023-05-23T04:12:01.339Z,18.76
2023-05-23T04:14:35.353Z,18.65
2023-05-23T04:17:06.047Z,18.56
2023-05-23T04:19:36.455Z,18.51
2023-05-23T04:22:07.129Z,18.40
2023-05-23T04:24:37.565Z,18.34
2023-05-23T04:27:08.955Z,18.42
2023-05-23T04:29:44.460Z,18.50
2023-05-23T04:32:17.040Z,18.68
2023-05-23T04:34:47.531Z,18.81
2023-05-23T04:37:22.389Z,18.86
2023-05-23T04:39:53.340Z,18.83
2023-05-23T04:42:42.598Z,18.88
2023-05-23T04:45:27.318Z,18.89
2023-05-23T04:48:03.200Z,19.02
2023-05-23T04:50:47.887Z,19.18
2023-05-23T04:53:18.802Z,19.26
2023-05-23T04:55:49.219Z,19.28
2023-05-23T04:58:21.826Z,19.28
2023-05-23T05:00:55.868Z,19.33
2023-05-23T05:03:26.778Z,19.34
2023-05-23T05:05:58.179Z,19.35
2023-05-23T05:08:28.828Z,19.42
2023-05-23T05:10:59.935Z,19.50
2023-05-23T05:13:30.633Z,19.51
2023-05-23T05:16:05.026Z,19.51
2023-05-23T05:18:36.609Z,19.53
2023-05-23T05:21:08.378Z,19.35
2023-05-23T05:23:41.226Z,19.53
2023-05-23T05:26:12.796Z,19.66
2023-05-23T05:28:43.770Z,19.54
2023-05-23T05:31:17.426Z,19.51
2023-05-23T05:33:48.128Z,19.62
2023-05-23T05:36:19.936Z,19.64
2023-05-23T05:38:50.178Z,19.64
2023-05-23T05:41:23.627Z,19.65
2023-05-23T05:43:57.094Z,19.70
2023-05-23T05:46:30.724Z,19.57
2023-05-23T05:49:01.733Z,19.54
2023-05-23T05:51:32.464Z,19.45
2023-05-23T05:54:03.130Z,19.41
2023-05-23T05:56:33.653Z,19.34
2023-05-23T05:59:04.025Z,19.31
2023-05-23T06:01:38.161Z,19.17
2023-05-23T06:04:09.800Z,19.24
2023-05-23T06:06:40.871Z,19.37
2023-05-23T06:09:13.221Z,19.36
2023-05-23T06:11:43.717Z,19.39
2023-05-23T06:14:14.277Z,19.39
2023-05-23T06:16:50.911Z,19.34
2023-05-23T06:19:21.419Z,19.27
2023-05-23T06:21:52.070Z,19.15
2023-05-23T06:24:23.802Z,19.22
2023-05-23T06:26:54.356Z,19.23
2023-05-23T06:29:24.825Z,19.33
2023-05-23T06:31:57.957Z,19.38
2023-05-23T06:34:29.068Z,19.36
2023-05-23T06:36:59.378Z,19.31
2023-05-23T06:39:29.810Z,19.51
2023-05-23T06:42:01.631Z,19.61
2023-05-23T06:44:42.549Z,19.67
2023-05-23T06:47:18.047Z,19.59
2023-05-23T06:49:48.668Z,19.56
2023-05-23T06:52:19.248Z,19.55
2023-05-23T06:54:49.823Z,19.43
2023-05-23T06:57:20.436Z,19.37
2023-05-23T06:59:51.214Z,19.46
2023-05-23T07:02:24.430Z,19.37
2023-05-23T07:04:55.137Z,19.44
2023-05-23T07:07:45.911Z,19.45
2023-05-23T07:10:16.539Z,19.42
2023-05-23T07:12:49.601Z,19.31
2023-05-23T07:15:21.907Z,19.19
2023-05-23T07:18:06.620Z,19.16
2023-05-23T07:20:37.524Z,19.15
2023-05-23T07:23:16.040Z,19.19
2023-05-23T07:26:01.170Z,19.19
2023-05-23T07:28:41.083Z,19.30
2023-05-23T07:31:12.339Z,19.24
2023-05-23T07:33:45.688Z,19.23
2023-05-23T07:36:22.695Z,19.32
2023-05-23T07:38:54.568Z,19.39
2023-05-23T07:41:25.317Z,19.38
2023-05-23T07:43:56.069Z,19.46
2023-05-23T07:46:26.436Z,19.48
2023-05-23T07:48:59.845Z,19.37
2023-05-23T07:51:31.135Z,19.21
2023-05-23T07:54:02.892Z,19.16
2023-05-23T07:56:33.748Z,19.33
2023-05-23T07:59:04.001Z,19.30
2023-05-23T08:01:34.534Z,19.27
2023-05-23T08:04:13.517Z,19.21
2023-05-23T08:07:04.323Z,19.10
2023-05-23T08:09:48.835Z,18.99
2023-05-23T08:12:22.506Z,18.95
2023-05-23T08:15:01.709Z,18.92
2023-05-23T08:17:36.433Z,18.84
2023-05-23T08:20:12.435Z,18.72
2023-05-23T08:22:43.272Z,18.73
2023-05-23T08:25:14.214Z,18.79
2023-05-23T08:27:44.747Z,18.76
2023-05-23T08:30:32.990Z,18.82
2023-05-23T08:33:04.981Z,18.90
2023-05-23T08:35:39.144Z,18.81
2023-05-23T08:38:14.474Z,18.86
2023-05-23T08:41:04.853Z,18.94
2023-05-23T08:43:35.662Z,18.86
2023-05-23T08:46:07.296Z,18.79
2023-05-23T08:48:41.802Z,18.82
2023-05-23T08:51:18.161Z,18.80
2023-05-23T08:53:53.803Z,18.76
2023-05-23T08:56:28.774Z,18.56
2023-05-23T08:59:02.343Z,18.32
2023-05-23T09:01:34.643Z,18.19
2023-05-23T09:04:09.415Z,18.06
2023-05-23T09:07:03.750Z,17.99
2023-05-23T09:09:35.195Z,17.93
2023-05-23T09:12:10.466Z,17.87
2023-05-23T09:14:41.732Z,17.93
2023-05-23T09:17:13.170Z,18.01
2023-05-23T09:19:46.199Z,18.12
2023-05-23T09:22:33.682Z,18.19
2023-05-23T09:25:11.099Z,18.22
2023-05-23T09:27:47.512Z,18.25
2023-05-23T09:30:19.527Z,18.24
2023-05-23T09:33:05.748Z,18.27
2023-05-23T09:35:37.098Z,18.37
2023-05-23T09:38:11.634Z,18.46
2023-05-23T09:40:48.773Z,18.39
2023-05-23T09:43:21.197Z,18.35
2023-05-23T09:45:56.580Z,18.49
2023-05-23T09:48:33.748Z,18.58
2023-05-23T09:51:08.860Z,18.55
2023-05-23T09:53:42.334Z,18.47
2023-05-23T09:56:15.538Z,18.41
2023-05-23T09:58:52.024Z,18.37
2023-05-23T10:01:23.205Z,18.46
2023-05-23T10:04:00.144Z,18.44
2023-05-23T10:06:36.708Z,18.67
2023-05-23T10:09:15.550Z,18.69
2023-05-23T10:12:48.079Z,18.94
2023-05-23T10:15:20.380Z,18.99
2023-05-23T10:18:09.281Z,18.98
2023-05-23T10:20:43.575Z,18.92
2023-05-23T10:23:15.877Z,18.87
2023-05-23T10:25:50.466Z,18.93
2023-05-23T10:28:21.449Z,18.95
2023-05-23T10:30:52.228Z,18.81
2023-05-23T10:33:23.328Z,18.68
2023-05-23T10:36:00.670Z,18.59
2023-05-23T10:38:39.924Z,18.47
2023-05-23T10:41:20.112Z,18.60
2023-05-23T10:44:00.381Z,18.67
2023-05-23T10:46:55.649Z,18.86
2023-05-23T10:49:41.775Z,18.95
2023-05-23T10:52:16.796Z,19.08
2023-05-23T10:54:49.725Z,19.32
2023-05-23T10:57:25.784Z,19.46
2023-05-23T10:59:56.624Z,19.60
2023-05-23T11:02:30.687Z,19.65
2023-05-23T11:05:23.780Z,19.57
2023-05-23T11:08:14.131Z,19.63
2023-05-23T11:11:02.066Z,19.81
2023-05-23T11:14:04.737Z,19.69
2023-05-23T11:16:37.754Z,19.52
2023-05-23T11:19:30.939Z,19.26
2023-05-23T11:22:04.191Z,19.12
2023-05-23T11:24:53.838Z,19.28
2023-05-23T11:27:29.964Z,19.57
2023-05-23T11:30:07.390Z,19.63
2023-05-23T11:32:38.317Z,19.49
2023-05-23T11:35:13.299Z,19.41
2023-05-23T11:37:43.940Z,19.22
2023-05-23T11:40:29.878Z,19.08
2023-05-23T11:43:00.889Z,18.90
2023-05-23T11:45:35.128Z,18.79
2023-05-23T11:48:10.353Z,18.80
2023-05-23T11:50:48.965Z,18.75
2023-05-23T11:53:21.941Z,18.78
2023-05-23T11:55:54.819Z,18.83
2023-05-23T11:58:29.017Z,18.73
2023-05-23T12:01:08.478Z,18.66
2023-05-23T12:03:47.840Z,18.57
2023-05-23T12:06:19.184Z,18.49
2023-05-23T12:08:50.471Z,18.41
2023-05-23T12:11:20.798Z,18.32
2023-05-23T12:13:52.117Z,18.11
2023-05-23T12:16:25.020Z,18.06
2023-05-23T12:18:56.658Z,18.15
2023-05-23T12:21:28.774Z,18.21
2023-05-23T12:24:00.262Z,18.23
2023-05-23T12:26:30.778Z,18.25
2023-05-23T12:29:01.636Z,18.28
2023-05-23T12:31:34.450Z,18.38
2023-05-23T12:34:05.011Z,18.43
2023-05-23T12:36:41.916Z,18.50
2023-05-23T12:39:19.157Z,18.57
2023-05-23T12:41:49.361Z,18.67
2023-05-23T12:44:19.746Z,18.67
2023-05-23T12:46:52.745Z,18.69
2023-05-23T12:49:23.064Z,18.61
2023-05-23T12:51:53.244Z,18.60
2023-05-23T12:54:23.499Z,18.70
2023-05-23T12:56:53.914Z,18.72
2023-05-23T12:59:24.218Z,18.66
2023-05-23T13:01:58.565Z,18.75
2023-05-23T13:04:31.092Z,18.70
2023-05-23T13:07:02.434Z,18.71
2023-05-23T13:09:32.707Z,18.63
2023-05-23T13:12:02.943Z,18.68
2023-05-23T13:14:33.170Z,18.50
2023-05-23T13:17:08.578Z,18.56
2023-05-23T13:19:39.481Z,18.48
2023-05-23T13:22:10.753Z,18.52
2023-05-23T13:24:41.085Z,18.60
2023-05-23T13:27:11.364Z,18.61
2023-05-23T13:29:42.283Z,18.53
2023-05-23T13:32:15.102Z,18.44
2023-05-23T13:34:45.811Z,18.21
2023-05-23T13:37:16.056Z,18.16
2023-05-23T13:39:46.232Z,17.91
2023-05-23T13:42:16.421Z,17.68
2023-05-23T13:44:46.612Z,17.55
2023-05-23T13:47:19.482Z,17.52
2023-05-23T13:49:49.735Z,17.35
2023-05-23T13:52:20.411Z,17.22
2023-05-23T13:54:51.001Z,17.16
2023-05-23T13:57:21.206Z,17.16
2023-05-23T13:59:51.762Z,17.21
2023-05-23T14:02:24.658Z,17.17
2023-05-23T14:04:54.956Z,17.14
2023-05-23T14:07:25.295Z,17.16
2023-05-23T14:09:55.858Z,17.16
2023-05-23T14:12:26.378Z,17.17
2023-05-23T14:14:56.753Z,17.18
2023-05-23T14:17:29.589Z,17.15
2023-05-23T14:19:59.815Z,17.03
2023-05-23T14:22:30.127Z,16.92
2023-05-23T14:25:01.150Z,16.89
2023-05-23T14:27:31.337Z,16.92
2023-05-23T14:30:04.686Z,16.95
2023-05-23T14:32:39.331Z,17.00
2023-05-23T14:35:11.035Z,17.02
2023-05-23T14:37:41.918Z,16.98
2023-05-23T14:40:14.474Z,16.89
2023-05-23T14:42:44.791Z,16.77
2023-05-23T14:45:17.812Z,16.71
2023-05-23T14:47:51.772Z,16.54
2023-05-23T14:50:22.394Z,16.44
2023-05-23T14:52:52.584Z,16.44
2023-05-23T14:55:22.909Z,16.43
2023-05-23T14:57:53.066Z,16.33
2023-05-23T15:00:23.876Z,16.27
2023-05-23T15:02:56.939Z,16.31
2023-05-23T15:05:27.227Z,16.35
2023-05-23T15:07:57.605Z,16.23
2023-05-23T15:10:27.999Z,16.13
2023-05-23T15:12:58.475Z,16.10
2023-05-23T15:15:37.267Z,16.02
2023-05-23T15:18:12.022Z,15.93
2023-05-23T15:20:42.439Z,15.91
2023-05-23T15:23:13.457Z,15.83
2023-05-23T15:25:49.034Z,15.73
2023-05-23T15:28:19.920Z,15.69
2023-05-23T15:30:50.172Z,15.68
2023-05-23T15:33:23.047Z,15.77
2023-05-23T15:35:54.118Z,15.78
2023-05-23T15:38:24.605Z,15.84
2023-05-23T15:40:56.711Z,15.79
2023-05-23T15:43:26.970Z,15.71
2023-05-23T15:45:57.373Z,15.63
2023-05-23T15:48:30.350Z,15.62
2023-05-23T15:51:00.621Z,15.70
2023-05-23T15:53:34.259Z,15.72
2023-05-23T15:56:07.680Z,15.63
2023-05-23T15:58:37.859Z,15.64
2023-05-23T16:01:09.895Z,15.78
2023-05-23T16:03:42.911Z,15.76
2023-05-23T16:06:13.102Z,15.71
2023-05-23T16:08:43.320Z,15.69
2023-05-23T16:11:13.548Z,15.68
2023-05-23T16:13:43.777Z,15.72
2023-05-23T16:16:14.125Z,15.75
2023-05-23T16:18:47.103Z,15.65
2023-05-23T16:21:20.768Z,15.58
2023-05-23T16:23:51.716Z,15.59
2023-05-23T16:26:22.016Z,15.41
2023-05-23T16:28:52.232Z,15.27
2023-05-23T16:31:28.974Z,15.25
2023-05-23T16:34:01.989Z,15.27
2023-05-23T16:36:32.773Z,15.21
2023-05-23T16:39:02.946Z,15.23
2023-05-23T16:41:33.212Z,15.13
2023-05-23T16:44:03.435Z,15.09
2023-05-23T16:46:33.763Z,15.07
2023-05-23T16:49:06.581Z,15.09
2023-05-23T16:51:36.832Z,14.94
2023-05-23T16:54:07.208Z,14.89
2023-05-23T16:56:39.102Z,14.65
2023-05-23T16:59:09.520Z,14.45
2023-05-23T17:01:40.013Z,14.41
2023-05-23T17:04:12.953Z,14.32
2023-05-23T17:06:43.416Z,14.25
2023-05-23T17:09:13.743Z,14.23
2023-05-23T17:11:44.177Z,14.16
2023-05-23T17:14:14.485Z,14.04
2023-05-23T17:16:44.727Z,14.03
2023-05-23T17:19:18.273Z,14.01
2023-05-23T17:21:48.568Z,13.95
2023-05-23T17:24:19.102Z,13.89
2023-05-23T17:26:49.715Z,13.77
2023-05-23T17:29:20.640Z,13.78
2023-05-23T17:31:51.511Z,13.92
2023-05-23T17:34:24.882Z,13.94
2023-05-23T17:36:55.483Z,13.97
2023-05-23T17:39:26.032Z,13.96
2023-05-23T17:41:56.548Z,13.89
2023-05-23T17:44:27.132Z,13.93
2023-05-23T17:46:57.807Z,13.94
2023-05-23T17:49:31.055Z,13.91
2023-05-23T17:52:04.959Z,13.89
2023-05-23T17:54:35.730Z,13.94
2023-05-23T17:57:07.034Z,14.08
2023-05-23T17:59:37.682Z,14.13
2023-05-23T18:02:10.911Z,14.16
2023-05-23T18:04:45.157Z,14.10
2023-05-23T18:07:18.842Z,14.07
2023-05-23T18:09:49.473Z,13.99
2023-05-23T18:12:20.271Z,13.90
2023-05-23T18:14:52.406Z,13.82
2023-05-23T18:17:23.149Z,13.79
2023-05-23T18:19:59.085Z,13.75
2023-05-23T18:22:31.894Z,13.73
2023-05-23T18:25:02.636Z,13.60
2023-05-23T18:27:34.427Z,13.55
2023-05-23T18:30:05.044Z,13.49
2023-05-23T18:32:35.730Z,13.41
2023-05-23T18:35:10.790Z,13.50
2023-05-23T18:37:41.867Z,13.42
2023-05-23T18:40:13.625Z,13.43
2023-05-23T18:42:44.205Z,13.47
2023-05-23T18:45:14.924Z,13.45
2023-05-23T18:47:45.595Z,13.46
2023-05-23T18:50:19.047Z,13.43
2023-05-23T18:52:49.622Z,13.42
2023-05-23T18:55:20.536Z,13.44
2023-05-23T18:57:51.022Z,13.46
2023-05-23T19:00:22.044Z,13.41
2023-05-23T19:02:52.334Z,13.39
2023-05-23T19:05:26.954Z,13.33
2023-05-23T19:07:57.602Z,13.35
2023-05-23T19:10:28.275Z,13.35
2023-05-23T19:12:58.821Z,13.38
2023-05-23T19:15:29.586Z,13.37
2023-05-23T19:18:00.085Z,13.34
2023-05-23T19:20:33.248Z,13.34
2023-05-23T19:23:04.387Z,13.33
2023-05-23T19:25:35.037Z,13.37
2023-05-23T19:28:06.287Z,13.36
2023-05-23T19:30:38.545Z,13.39
2023-05-23T19:33:09.237Z,13.33
2023-05-23T19:35:42.647Z,13.34
2023-05-23T19:38:13.230Z,13.29
2023-05-23T19:40:43.923Z,13.26
2023-05-23T19:43:14.611Z,13.24
2023-05-23T19:45:45.458Z,13.26
2023-05-23T19:48:16.279Z,13.33
2023-05-23T19:50:49.665Z,13.19
2023-05-23T19:53:20.297Z,13.04
2023-05-23T19:55:51.008Z,13.06
2023-05-23T19:58:21.923Z,12.98
2023-05-23T20:00:52.509Z,13.05
2023-05-23T20:03:23.255Z,13.11
2023-05-23T20:05:56.969Z,13.19
2023-05-23T20:08:27.750Z,13.17
2023-05-23T20:10:59.590Z,13.16
2023-05-23T20:13:30.985Z,13.18
2023-05-23T20:16:02.081Z,13.32
2023-05-23T20:18:32.765Z,13.42
2023-05-23T20:21:05.991Z,13.32
2023-05-23T20:23:37.242Z,13.15
2023-05-23T20:26:09.517Z,12.99
2023-05-23T20:28:40.387Z,12.88
2023-05-23T20:31:10.982Z,12.77
2023-05-23T20:33:41.502Z,12.65
2023-05-23T20:36:14.709Z,12.59
2023-05-23T20:38:45.199Z,12.53
2023-05-23T20:41:15.759Z,12.62
2023-05-23T20:43:46.672Z,12.62
2023-05-23T20:46:17.272Z,12.60
2023-05-23T20:48:47.809Z,12.80
2023-05-23T20:51:21.210Z,12.72
2023-05-23T20:53:51.925Z,12.67
2023-05-23T20:56:22.832Z,12.65
2023-05-23T20:58:53.120Z,12.55
2023-05-23T21:01:24.636Z,12.62
2023-05-23T21:03:55.388Z,12.64
2023-05-23T21:06:28.582Z,12.64
2023-05-23T21:08:59.167Z,12.65
2023-05-23T21:11:29.662Z,12.67
2023-05-23T21:14:00.414Z,12.62
2023-05-23T21:16:33.335Z,12.66
2023-05-23T21:19:04.280Z,12.68
2023-05-23T21:21:37.778Z,12.66
2023-05-23T21:24:08.603Z,12.72
2023-05-23T21:26:39.269Z,12.76
2023-05-23T21:29:10.051Z,12.78
2023-05-23T21:31:42.130Z,12.77
2023-05-23T21:34:23.206Z,12.76
2023-05-23T21:36:57.837Z,12.76
2023-05-23T21:39:39.190Z,12.84
2023-05-23T21:42:17.780Z,12.90
2023-05-23T21:44:48.366Z,12.98
2023-05-23T21:47:19.366Z,13.03
2023-05-23T21:49:49.642Z,12.82
2023-05-23T21:52:22.818Z,12.83
2023-05-23T21:54:53.386Z,12.91
2023-05-23T21:57:23.846Z,12.94
2023-05-23T21:59:54.543Z,12.93
2023-05-23T22:02:25.155Z,12.93
2023-05-23T22:04:56.049Z,12.91
2023-05-23T22:07:29.703Z,12.85
2023-05-23T22:10:03.020Z,12.86
2023-05-23T22:12:33.910Z,12.85
2023-05-23T22:15:04.532Z,12.83
2023-05-23T22:17:35.295Z,12.85
2023-05-23T22:20:07.508Z,12.81
2023-05-23T22:22:40.963Z,12.86
2023-05-23T22:25:12.524Z,12.86
2023-05-23T22:27:43.113Z,12.81
2023-05-23T22:30:15.222Z,12.82
2023-05-23T22:32:45.934Z,12.80
2023-05-23T22:35:16.590Z,12.82
2023-05-23T22:37:50.268Z,12.81
2023-05-23T22:40:21.086Z,12.83
2023-05-23T22:42:51.767Z,12.83
2023-05-23T22:45:22.489Z,12.76
2023-05-23T22:47:54.310Z,12.77
2023-05-23T22:50:27.248Z,12.81
2023-05-23T22:53:01.126Z,12.75
2023-05-23T22:55:31.638Z,12.68
2023-05-23T22:58:02.110Z,12.74
2023-05-23T23:00:32.744Z,12.81
2023-05-23T23:03:04.186Z,12.80
2023-05-23T23:05:35.006Z,12.75
2023-05-23T23:08:08.310Z,12.73
2023-05-23T23:10:39.033Z,12.68
2023-05-23T23:13:09.646Z,12.70
2023-05-23T23:15:40.577Z,12.72
2023-05-23T23:18:13.770Z,12.68
2023-05-23T23:20:44.905Z,12.62
2023-05-23T23:23:18.403Z,12.59
2023-05-23T23:25:50.444Z,12.59
2023-05-23T23:28:21.126Z,12.58
2023-05-23T23:30:51.833Z,12.59
2023-05-23T23:33:22.335Z,12.52
2023-05-23T23:35:53.345Z,12.45
2023-05-23T23:38:26.136Z,12.47
2023-05-23T23:40:56.676Z,12.42
2023-05-23T23:43:27.307Z,12.40
2023-05-23T23:45:57.915Z,12.38
2023-05-23T23:48:28.496Z,12.32
2023-05-23T23:50:59.142Z,12.36
2023-05-23T23:53:32.214Z,12.29
2023-05-23T23:56:02.899Z,12.25
2023-05-23T23:58:33.392Z,12.25
